Latest Weather Observations for Camden

IDN60901

Issued at 9:01 am EDT Tuesday 22 January 2019 (issued every 10 minutes, with the page automatically refreshed every 10 minutes)

About weather observations | Map of Sydney area stations | Latest observations for Sydney area | Other Formats
Station Details ID: 068192 Name: CAMDEN AIRPORT AWS Lat: -34.04 Lon: 150.69 Height: 73.9 m
Data from the previous 72 hours. | See also: Recent months at Camden
Date/Time
EDT
Temp
°C
App
Temp
°C
Dew
Point
°C
Rel
Hum
%
Delta-T
°C
Wind Press
QNH
hPa
Press
MSL
hPa
Rain since
9am
mm
Dir  Spd
km/h
Gust
km/h
Spd
kts
Gust
kts
22/09:00am 24.2 27.5 20.7 81 2.3 SW 4 9 2 5 1016.4 1016.0 11.4
22/08:30am 23.6 27.3 21.5 88 1.4 W 4 9 2 5 1016.3 1015.9 11.4
22/08:00am 22.9 27.7 22.2 96 0.5 CALM 0 0 0 0 1016.2 1015.8 11.4
22/07:30am 22.5 27.5 22.5 100 0.0 CALM 0 0 0 0 1016.0 1015.6 11.4
22/07:12am 22.3 27.2 22.3 100 0.0 CALM 0 0 0 0 1015.8 1015.4 11.4
22/07:02am 22.3 27.2 22.3 100 0.0 CALM 0 0 0 0 1015.8 1015.4 11.4
22/07:00am 22.3 27.2 22.3 100 0.0 CALM 0 0 0 0 1015.8 1015.4 11.4
22/06:30am 21.9 26.6 21.9 100 0.0 CALM 0 0 0 0 1015.7 1015.3 11.4
22/06:00am 21.8 26.4 21.8 100 0.0 CALM 0 0 0 0 1015.5 1015.1 11.4
22/05:51am 21.7 26.3 21.7 100 0.0 CALM 0 0 0 0 1015.3 1015.0 11.4
22/05:30am 21.7 26.3 21.7 100 0.0 CALM 0 0 0 0 1015.3 1015.0 11.4
22/05:00am 21.5 26.0 21.5 100 0.0 CALM 0 0 0 0 1015.1 1014.8 11.4
22/04:30am 21.3 25.7 21.3 100 0.0 CALM 0 0 0 0 1015.2 1014.9 11.4
22/04:00am 21.1 25.4 21.1 100 0.0 CALM 0 0 0 0 1015.5 1015.1 11.4
22/03:30am 21.0 25.2 21.0 100 0.0 CALM 0 0 0 0 1015.5 1015.1 11.4
22/03:00am 21.0 25.2 21.0 100 0.0 CALM 0 0 0 0 1015.6 1015.2 11.4
22/02:30am 21.4 25.8 21.4 100 0.0 CALM 0 0 0 0 1015.9 1015.5 11.4
22/02:21am 21.2 25.4 21.0 99 0.1 CALM 0 0 0 0 1015.9 1015.5 11.4
22/02:00am 21.2 25.4 21.0 99 0.1 CALM 0 0 0 0 1016.2 1015.8 11.4
22/01:30am 21.6 26.0 21.4 99 0.1 CALM 0 0 0 0 1016.4 1016.0 11.4
22/01:00am 21.8 26.3 21.6 99 0.1 CALM 0 0 0 0 1016.5 1016.1 11.4
22/12:30am 22.0 26.6 21.8 99 0.1 CALM 0 0 0 0 1016.8 1016.4 11.4
22/12:06am 22.0 26.6 21.8 99 0.1 CALM 0 0 0 0 1016.9 1016.5 11.4
22/12:00am 22.1 26.8 21.9 99 0.1 CALM 0 0 0 0 1017.0 1016.6 11.4
 
Date/Time
EDT
Temp
°C
App
Temp
°C
Dew
Point
°C
Rel
Hum
%
Delta-T
°C
Wind Press
QNH
hPa
Press
MSL
hPa
Rain since
9am
mm
Dir  Spd
km/h
Gust
km/h
Spd
kts
Gust
kts
21/11:30pm 22.3 26.7 22.1 99 0.1 SSW 2 6 1 3 1017.3 1016.9 11.4
21/11:27pm 22.4 26.5 22.2 99 0.1 SSW 4 7 2 4 1017.3 1016.9 11.4
21/11:00pm 22.7 27.6 22.4 98 0.2 CALM 0 0 0 0 1017.3 1016.9 11.4
21/10:40pm 22.9 28.0 22.6 98 0.2 CALM 0 0 0 0 1017.4 1017.0 11.4
21/10:30pm 22.9 27.7 22.2 96 0.5 CALM 0 0 0 0 1017.4 1017.0 11.4
21/10:00pm 23.3 28.4 22.6 96 0.5 CALM 0 6 0 3 1017.4 1017.0 11.4
21/09:30pm 23.3 28.3 22.5 95 0.5 CALM 0 6 0 3 1017.1 1016.7 11.4
21/09:00pm 23.6 28.5 22.4 93 0.8 CALM 0 0 0 0 1016.8 1016.4 11.4
21/08:30pm 23.8 28.4 21.7 88 1.4 CALM 0 0 0 0 1016.5 1016.1 11.4
21/08:00pm 24.4 28.6 21.7 85 1.8 SSW 2 7 1 4 1016.5 1016.1 11.4
21/07:30pm 24.8 29.3 21.5 82 2.2 CALM 0 0 0 0 1016.6 1016.2 11.4
21/07:00pm 25.0 29.4 21.3 80 2.4 CALM 0 0 0 0 1016.3 1015.9 11.4
21/06:30pm 25.1 29.5 21.4 80 2.5 CALM 0 0 0 0 1016.3 1015.9 11.4
21/06:00pm 24.9 28.8 21.2 80 2.4 ENE 2 9 1 5 1016.2 1015.8 11.4
21/05:30pm 25.0 28.0 21.3 80 2.4 E 7 11 4 6 1016.2 1015.8 11.4
21/05:00pm 25.1 28.1 21.2 79 2.6 SE 7 11 4 6 1016.3 1015.9 11.4
21/04:30pm 25.4 28.2 20.9 76 3.0 SE 7 11 4 6 1016.4 1016.0 11.4
21/04:00pm 25.8 29.0 21.2 76 3.0 ESE 6 11 3 6 1016.7 1016.3 11.2
21/03:30pm 24.9 28.2 21.4 81 2.3 SE 6 11 3 6 1017.2 1016.8 11.2
21/03:00pm 23.8 26.9 22.2 91 1.1 SE 9 11 5 6 1017.5 1017.1 11.2
21/02:30pm 22.5 25.8 21.5 94 0.7 S 6 9 3 5 1017.7 1017.3 11.2
21/02:17pm 22.3 26.3 22.1 99 0.1 S 4 7 2 4 1017.9 1017.5 11.2
21/02:00pm 21.7 25.8 21.5 99 0.1 SSE 2 6 1 3 1018.1 1017.7 11.0
21/01:36pm 21.5 23.7 20.5 94 0.6 E 9 13 5 7 1018.5 1018.1 6.8
21/01:30pm 21.7 23.9 20.3 92 0.9 ENE 9 11 5 6 1018.4 1018.0 6.0
21/01:21pm 22.3 25.3 20.8 91 1.0 ENE 6 11 3 6 1018.5 1018.1 3.8
21/01:18pm 22.7 26.4 21.5 93 0.8 NNE 4 9 2 5 1018.5 1018.1 2.8
21/01:00pm 22.8 26.3 21.8 94 0.7 N 6 9 3 5 1018.6 1018.2 1.8
21/12:55pm 22.6 25.7 21.4 93 0.8 N 7 11 4 6 1018.8 1018.4 1.6
21/12:30pm 22.8 25.2 20.1 85 1.7 WNW 7 9 4 5 1019.1 1018.8 1.2
21/12:13pm 23.2 25.9 20.7 86 1.6 WNW 7 9 4 5 1019.2 1018.9 1.0
21/12:01pm 24.0 26.5 19.9 78 2.7 W 6 11 3 6 1019.3 1019.0 0.2
21/12:00pm 24.1 26.6 19.8 77 2.8 W 6 9 3 5 1019.3 1019.0 0.0
21/11:30am 24.4 27.9 19.5 74 3.2 CALM 0 4 0 2 1019.4 1019.1 0.0
21/11:00am 24.8 27.9 19.6 73 3.3 WNW 2 9 1 5 1019.6 1019.3 0.0
21/10:56am 25.0 28.2 19.8 73 3.4 W 2 9 1 5 1019.6 1019.3 0.0
21/10:35am 25.1 28.4 20.8 77 2.8 WNW 4 11 2 6 1019.8 1019.5 0.0
21/10:30am 24.7 28.4 20.8 79 2.6 NW 2 9 1 5 1019.9 1019.6 0.0
21/10:00am 23.5 26.3 20.4 83 2.0 E 6 9 3 5 1019.9 1019.6 0.0
21/09:56am 23.6 26.6 20.9 85 1.8 E 6 9 3 5 1020.0 1019.7 0.0
21/09:30am 22.6 24.7 20.9 90 1.1 ENE 11 17 6 9 1019.9 1019.6 0.0
21/09:28am 22.5 24.1 20.8 90 1.1 ENE 13 17 7 9 1019.9 1019.6 0.0
21/09:00am 22.2 24.2 20.7 91 1.0 ENE 11 17 6 9 1020.0 1019.7 2.0
21/08:30am 21.9 23.9 20.7 93 0.8 NE 11 17 6 9 1019.7 1019.4 2.0
21/08:05am 21.9 24.9 21.2 96 0.5 NE 7 13 4 7 1019.2 1018.9 2.0
21/08:00am 21.8 24.8 21.3 97 0.3 ENE 7 11 4 6 1019.1 1018.8 2.0
21/07:30am 21.6 24.3 21.4 99 0.1 SSE 9 15 5 8 1018.0 1017.6 2.0
21/07:00am 21.3 23.8 21.1 99 0.1 SE 9 13 5 7 1017.9 1017.5 2.0
21/06:30am 21.2 22.7 21.2 100 0.0 S 15 19 8 10 1017.6 1017.2 2.0
21/06:05am 21.3 24.2 21.1 99 0.1 ESE 7 15 4 8 1017.7 1017.3 2.0
21/06:00am 21.3 24.2 21.1 99 0.1 ESE 7 13 4 7 1017.6 1017.2 2.0
21/05:30am 21.4 24.1 21.4 100 0.0 S 9 13 5 7 1018.4 1018.0 2.0
21/05:16am 21.4 24.1 21.4 100 0.0 SSW 9 13 5 7 1018.2 1017.8 2.0
21/05:00am 21.3 24.5 21.3 100 0.0 SSE 6 9 3 5 1018.2 1017.8 2.0
21/04:30am 21.2 23.4 21.2 100 0.0 NE 11 19 6 10 1018.4 1018.0 2.0
21/04:13am 21.0 23.9 21.0 100 0.0 ENE 7 11 4 6 1018.5 1018.1 2.0
21/04:00am 21.0 23.9 21.0 100 0.0 ESE 7 9 4 5 1018.7 1018.3 2.0
21/03:30am 21.0 25.1 20.8 99 0.1 CALM 0 0 0 0 1019.3 1019.0 2.0
21/03:20am 21.0 24.8 21.0 100 0.0 NE 2 6 1 3 1019.6 1019.3 2.0
21/03:16am 21.0 24.4 21.0 100 0.0 NE 4 7 2 4 1019.7 1019.4 2.0
21/03:00am 21.1 24.0 21.1 100 0.0 NNE 7 11 4 6 1019.7 1019.4 1.8
21/02:30am 21.1 24.0 21.1 100 0.0 NW 7 9 4 5 1020.5 1020.2 1.6
21/02:00am 21.2 24.2 21.2 100 0.0 W 7 9 4 5 1020.6 1020.3 1.2
21/01:30am 21.2 24.3 21.0 99 0.1 WSW 6 6 3 3 1020.3 1020.0 0.8
21/01:00am 21.2 25.4 21.0 99 0.1 CALM 0 0 0 0 1020.3 1020.0 0.8
21/12:30am 21.2 24.3 21.0 99 0.1 W 6 7 3 4 1020.3 1020.0 0.4
21/12:00am 21.2 24.9 20.7 97 0.3 SW 2 9 1 5 1020.3 1020.0 0.0
 
Date/Time
EDT
Temp
°C
App
Temp
°C
Dew
Point
°C
Rel
Hum
%
Delta-T
°C
Wind Press
QNH
hPa
Press
MSL
hPa
Rain since
9am
mm
Dir  Spd
km/h
Gust
km/h
Spd
kts
Gust
kts
20/11:51pm 21.2 24.8 20.5 96 0.5 S 2 7 1 4 1019.9 1019.6 0.0
20/11:30pm 21.2 23.9 20.7 97 0.3 SW 7 11 4 6 1019.8 1019.5 0.0
20/11:18pm 21.3 24.2 20.6 96 0.5 SW 6 7 3 4 1020.0 1019.7 0.0
20/11:00pm 21.4 24.4 20.0 92 0.9 SW 4 9 2 5 1020.3 1020.0 0.0
20/10:51pm 21.6 24.0 19.7 89 1.2 SW 6 9 3 5 1020.4 1020.1 0.0
20/10:30pm 22.7 25.5 18.9 79 2.4 W 2 7 1 4 1020.6 1020.3 0.0
20/10:00pm 22.8 25.6 18.8 78 2.5 ENE 2 9 1 5 1020.1 1019.8 0.0
20/09:39pm 22.8 23.4 18.6 77 2.7 ENE 13 17 7 9 1020.0 1019.7 0.0
20/09:30pm 23.0 24.2 18.3 75 3.0 ESE 9 19 5 10 1019.9 1019.6 0.0
20/09:00pm 23.5 24.8 18.4 73 3.2 E 9 15 5 8 1019.4 1019.1 0.0
20/08:30pm 23.7 23.8 18.4 72 3.3 ENE 15 20 8 11 1019.2 1018.9 0.0
20/08:00pm 23.8 24.2 18.2 71 3.5 ENE 13 20 7 11 1018.4 1018.0 0.0
20/07:30pm 24.0 24.0 18.2 70 3.7 ENE 15 20 8 11 1018.2 1017.8 0.0
20/07:00pm 24.3 24.9 18.5 70 3.7 ENE 13 19 7 10 1017.7 1017.3 0.0
20/06:30pm 24.4 24.2 18.6 70 3.7 ENE 17 20 9 11 1017.8 1017.4 0.0
20/06:00pm 24.9 25.5 18.6 68 4.0 ENE 13 20 7 11 1017.4 1017.0 0.0
20/05:30pm 25.6 26.0 19.0 67 4.2 ENE 15 22 8 12 1017.1 1016.7 0.0
20/05:00pm 26.3 26.3 18.9 63 4.7 ENE 17 24 9 13 1017.2 1016.8 0.0
20/04:30pm 27.0 26.3 18.3 59 5.5 NE 19 26 10 14 1017.4 1017.0 0.0
20/04:00pm 27.1 27.7 18.7 60 5.4 ENE 13 20 7 11 1017.8 1017.4 0.0
20/03:30pm 26.8 26.4 18.1 59 5.5 NE 17 26 9 14 1018.1 1017.7 0.0
20/03:00pm 26.3 26.3 18.2 61 5.1 NNE 15 20 8 11 1018.5 1018.1 0.0
20/02:30pm 26.5 27.0 18.4 61 5.2 NNE 13 20 7 11 1019.0 1018.7 0.0
20/02:00pm 25.8 26.2 18.2 63 4.8 N 13 20 7 11 1019.5 1019.2 0.0
20/01:30pm 24.5 25.4 17.5 65 4.4 N 9 13 5 7 1020.0 1019.7 0.0
20/01:00pm 24.0 25.5 18.0 69 3.8 NNE 7 13 4 7 1020.5 1020.2 0.0
20/12:30pm 23.2 24.3 17.2 69 3.7 N 7 11 4 6 1020.9 1020.6 0.0
20/12:23pm 23.6 25.6 17.8 70 3.6 NNW 4 11 2 6 1021.0 1020.7 0.0
20/12:00pm 22.7 24.0 17.2 71 3.4 WNW 6 7 3 4 1021.2 1020.9 0.0
20/11:30am 22.5 24.2 17.2 72 3.3 WSW 4 9 2 5 1021.4 1021.1 0.0
20/11:00am 22.1 23.2 17.0 73 3.1 WNW 7 11 4 6 1021.6 1021.3 0.0
20/10:30am 21.7 23.1 17.3 76 2.7 W 6 9 3 5 1022.0 1021.7 0.0
20/10:00am 21.3 22.4 17.1 77 2.6 W 7 9 4 5 1022.0 1021.7 0.0
20/09:30am 21.0 22.1 17.2 79 2.3 W 7 11 4 6 1021.9 1021.6 0.0
20/09:00am 20.8 22.1 17.6 82 2.0 WNW 7 11 4 6 1021.8 1021.5 0.0
20/08:46am 20.7 21.7 17.7 83 1.9 W 9 11 5 6 1021.9 1021.6 0.0
20/08:30am 20.6 21.5 17.6 83 1.9 W 9 11 5 6 1021.7 1021.4 0.0
20/08:00am 20.5 22.6 17.3 82 2.0 SW 2 9 1 5 1021.4 1021.1 0.0
20/07:37am 20.3 22.1 17.5 84 1.7 S 4 7 2 4 1021.2 1020.9 0.0
20/07:30am 20.1 21.6 17.5 85 1.6 SSW 6 11 3 6 1021.0 1020.7 0.0
20/07:00am 19.9 21.3 17.7 87 1.4 SSW 7 11 4 6 1021.0 1020.7 0.0
20/06:55am 19.9 21.2 17.5 86 1.5 SSW 7 11 4 6 1021.0 1020.7 0.0
20/06:30am 19.8 20.7 17.6 87 1.4 SSW 9 11 5 6 1020.8 1020.5 0.0
20/06:00am 19.8 21.1 17.2 85 1.6 SSW 6 9 3 5 1020.5 1020.2 0.0
20/05:30am 20.1 22.2 17.1 83 1.8 W 2 7 1 4 1020.3 1020.0 0.0
20/05:00am 20.1 21.3 17.3 84 1.7 W 7 7 4 4 1020.1 1019.8 0.0
20/04:30am 20.1 21.5 17.3 84 1.7 WSW 6 7 3 4 1020.0 1019.7 0.0
20/04:00am 20.1 21.5 17.7 86 1.5 WSW 7 9 4 5 1020.1 1019.8 0.0
20/03:59am 20.1 21.4 17.5 85 1.6 WSW 7 9 4 5 1020.1 1019.8 0.0
20/03:40am 20.1 21.4 17.5 85 1.6 WSW 7 9 4 5 1020.1 1019.8 0.0
20/03:30am 20.0 21.4 17.4 85 1.6 WSW 6 7 3 4 1020.1 1019.8 0.0
20/03:00am 20.1 21.3 17.3 84 1.7 WSW 7 9 4 5 1020.3 1020.0 0.0
20/02:30am 20.2 21.8 17.0 82 2.0 SW 4 7 2 4 1020.7 1020.4 0.0
20/02:00am 20.3 21.2 16.7 80 2.2 SSW 7 9 4 5 1021.0 1020.7 0.0
20/01:30am 20.4 22.0 16.8 80 2.2 S 4 9 2 5 1021.4 1021.1 0.0
20/01:18am 20.4 22.0 16.8 80 2.2 S 4 9 2 5 1021.6 1021.3 0.0
20/01:00am 20.4 21.4 16.8 80 2.2 SSE 7 9 4 5 1021.8 1021.5 0.0
20/12:30am 20.4 21.7 17.0 81 2.1 SE 6 9 3 5 1022.1 1021.8 0.0
20/12:00am 20.4 21.4 16.8 80 2.2 SE 7 13 4 7 1022.1 1021.8 0.0
 
Date/Time
EDT
Temp
°C
App
Temp
°C
Dew
Point
°C
Rel
Hum
%
Delta-T
°C
Wind Press
QNH
hPa
Press
MSL
hPa
Rain since
9am
mm
Dir  Spd
km/h
Gust
km/h
Spd
kts
Gust
kts
19/11:30pm 20.6 21.7 17.2 81 2.1 SSW 7 13 4 7 1022.1 1021.8 0.0
19/11:23pm 20.5 21.6 17.1 81 2.1 SSW 7 9 4 5 1022.1 1021.8 0.0
19/11:02pm 20.4 21.1 17.0 81 2.1 S 9 13 5 7 1022.1 1021.8 0.0
19/11:00pm 20.4 21.1 17.0 81 2.1 S 9 13 5 7 1022.1 1021.8 0.0
19/10:37pm 20.4 21.1 17.0 81 2.1 SSE 9 11 5 6 1022.1 1021.8 0.0
19/10:30pm 20.4 20.7 17.0 81 2.1 SSE 11 15 6 8 1022.1 1021.8 0.0
19/10:00pm 20.5 20.8 16.9 80 2.2 SE 11 17 6 9 1021.8 1021.5 0.0
19/09:30pm 20.5 20.8 17.1 81 2.1 SE 11 17 6 9 1021.7 1021.4 0.0
19/09:15pm 21.0 20.9 17.0 78 2.4 SE 13 22 7 12 1021.5 1021.2 0.0
19/09:00pm 21.1 21.5 17.3 79 2.3 SE 11 17 6 9 1021.2 1020.9 0.0
19/08:30pm 21.1 21.7 17.7 81 2.1 ESE 11 17 6 9 1020.6 1020.3 0.0
19/08:11pm 21.4 22.2 17.4 78 2.5 SSE 9 17 5 9 1020.3 1020.0 0.0
19/08:00pm 21.4 21.5 17.4 78 2.5 SE 13 19 7 10 1020.1 1019.8 0.0
19/07:30pm 21.7 21.8 17.5 77 2.6 SSE 13 20 7 11 1019.6 1019.3 0.0
19/07:00pm 22.0 21.7 17.4 75 2.8 SSE 15 22 8 12 1019.2 1018.9 0.0
19/06:30pm 22.5 22.6 17.4 73 3.2 SSE 13 19 7 10 1018.9 1018.5 0.0
19/06:00pm 23.0 22.8 17.5 71 3.4 SE 15 24 8 13 1018.6 1018.2 0.0
19/05:30pm 23.6 23.2 17.1 67 4.0 SE 15 20 8 11 1018.3 1017.9 0.0
19/05:00pm 23.7 23.2 17.0 66 4.1 SE 15 24 8 13 1018.2 1017.8 0.0
19/04:30pm 24.3 23.5 17.1 64 4.5 SSE 17 22 9 12 1018.3 1017.9 0.0
19/04:00pm 24.5 23.2 16.7 61 4.8 SSE 19 24 10 13 1018.2 1017.8 0.0
19/03:30pm 25.3 24.5 17.0 60 5.2 SE 17 24 9 13 1018.0 1017.6 0.0
19/03:00pm 25.9 25.5 18.1 62 4.9 SE 17 22 9 12 1018.1 1017.7 0.0
19/02:30pm 25.3 24.8 17.7 62 4.8 ESE 17 24 9 13 1018.0 1017.6 0.0
19/02:00pm 25.0 24.4 17.5 63 4.7 SSE 17 22 9 12 1018.1 1017.7 0.0
19/01:30pm 25.3 24.5 18.0 64 4.6 SSE 19 26 10 14 1018.0 1017.6 0.0
19/01:00pm 25.6 25.3 18.3 64 4.6 SE 17 28 9 15 1018.0 1017.6 0.0
19/12:30pm 25.6 25.0 18.8 66 4.3 SSE 20 28 11 15 1017.8 1017.4 0.0
19/12:00pm 25.7 25.1 18.9 66 4.4 SE 20 35 11 19 1017.5 1017.1 0.0
19/11:30am 28.9 30.8 19.8 58 6.0 NE 9 15 5 8 1016.9 1016.5 0.0
19/11:00am 29.0 30.2 19.9 58 6.0 ENE 13 20 7 11 1016.4 1016.0 0.0
19/10:30am 28.9 30.4 19.8 58 6.0 E 11 15 6 8 1016.2 1015.8 0.0
19/10:17am 29.0 31.0 19.9 58 6.0 E 9 13 5 7 1016.2 1015.8 0.0
19/10:00am 28.0 30.5 19.0 58 5.8 NNE 4 9 2 5 1015.9 1015.5 0.0
19/09:58am 28.2 31.3 19.4 59 5.7 NNE 2 7 1 4 1015.9 1015.5 0.0
19/09:30am 26.7 28.0 19.3 64 4.8 N 11 15 6 8 1015.1 1014.8 0.0

Latest Capital City Observations: Canberra | Sydney | Melbourne | Brisbane | Adelaide | Perth | Hobart | Darwin

Other Formats:

Comma delimited format used in spreadsheet applications
http://www.bom.gov.au/fwo/IDN60901/IDN60901.94755.axf

JavaScript Object Notation format (JSON) in row-major order
http://www.bom.gov.au/fwo/IDN60901/IDN60901.94755.json